Time;durP1;ratioP1;P1;durP2;ratioP2;P2;SDS_P1;SDS_P2;PMS_P1;PMS_P2;Temp;Humidity;BMP_temperature;BMP_pressure;BME280_temperature;BME280_humidity;BME280_pressure;Samples;Min_cycle;Max_cycle;Signal;HPM_P1;HPM_P2
2023/03/13 00:01:48;;;;;;;16.42;7.90;;;1.20;99.90;;;;;;20912530;28;20025;-52
2023/03/13 00:11:50;;;;;;;14.65;9.40;;;1.10;99.90;;;;;;20911515;28;20051;-50
2023/03/13 00:21:51;;;;;;;14.50;8.60;;;1.30;99.90;;;;;;20910174;28;20382;-53
2023/03/13 00:31:53;;;;;;;11.23;7.22;;;1.40;99.90;;;;;;20910103;28;20037;-53
2023/03/13 00:41:54;;;;;;;12.10;5.82;;;1.40;99.90;;;;;;20907654;28;20037;-50
2023/03/13 00:51:56;;;;;;;11.55;6.00;;;1.90;99.90;;;;;;20907926;28;20025;-50
2023/03/13 01:01:58;;;;;;;13.43;7.72;;;2.40;99.90;;;;;;20908993;28;20041;-50
2023/03/13 01:11:59;;;;;;;11.25;6.60;;;2.40;99.90;;;;;;20905287;28;20402;-52
2023/03/13 01:22:01;;;;;;;9.95;6.30;;;2.30;99.90;;;;;;20906590;28;20045;-46
2023/03/13 01:32:03;;;;;;;14.95;6.97;;;2.10;99.90;;;;;;20905429;28;20029;-54
2023/03/13 01:42:04;;;;;;;9.07;5.82;;;2.00;99.90;;;;;;20903257;28;20033;-53
2023/03/13 01:52:12;;;;;;;9.98;6.40;;;2.10;99.90;;;;;;20904058;28;20036;-51
2023/03/13 02:02:22;;;;;;;18.85;8.75;;;2.10;99.90;;;;;;20904075;28;20037;-52
2023/03/13 02:12:33;;;;;;;14.13;8.05;;;2.20;99.90;;;;;;20902859;28;20052;-50
2023/03/13 02:22:53;;;;;;;11.85;7.22;;;2.20;99.90;;;;;;20902004;28;20037;-50
2023/03/13 02:32:55;;;;;;;13.30;7.75;;;2.10;99.90;;;;;;20902890;28;20502;-50
2023/03/13 02:43:00;;;;;;;16.20;8.43;;;2.10;99.90;;;;;;20902306;28;20075;-52
2023/03/13 02:53:06;;;;;;;16.83;8.45;;;2.10;99.90;;;;;;20916268;28;20033;-52
2023/03/13 03:03:09;;;;;;;13.48;8.18;;;2.10;99.90;;;;;;20916309;28;20040;-52
2023/03/13 03:13:11;;;;;;;17.63;8.52;;;2.00;99.90;;;;;;20914979;28;20501;-53
2023/03/13 03:23:13;;;;;;;12.75;7.97;;;1.80;99.90;;;;;;20915561;28;20025;-50
2023/03/13 03:33:15;;;;;;;12.85;8.35;;;1.80;99.90;;;;;;20914703;28;20032;-51
2023/03/13 03:43:17;;;;;;;14.45;8.15;;;1.80;99.90;;;;;;20912513;28;20082;-53
2023/03/13 03:53:19;;;;;;;17.25;8.23;;;1.80;99.90;;;;;;20911497;28;20037;-51
2023/03/13 04:03:21;;;;;;;15.27;7.63;;;1.90;99.90;;;;;;20911275;28;20107;-46
2023/03/13 04:13:23;;;;;;;16.35;7.90;;;2.00;99.90;;;;;;20909959;28;20052;-49
2023/03/13 04:23:25;;;;;;;13.80;6.80;;;2.10;99.90;;;;;;20909481;28;20025;-50
2023/03/13 04:33:27;;;;;;;12.20;6.68;;;2.20;99.90;;;;;;20909005;28;20442;-52
2023/03/13 04:43:52;;;;;;;13.63;6.55;;;2.30;99.90;;;;;;20906010;28;20048;-47
2023/03/13 04:54:07;;;;;;;14.77;7.57;;;2.30;99.90;;;;;;20906934;28;20485;-52
2023/03/13 05:04:41;;;;;;;14.75;8.18;;;2.40;99.90;;;;;;20815260;28;20057;-51
2023/03/13 05:15:11;;;;;;;14.40;8.40;;;2.40;99.90;;;;;;20805219;28;20057;-52
2023/03/13 05:25:32;;;;;;;14.93;9.67;;;2.10;99.90;;;;;;20813472;28;20477;-49
2023/03/13 05:35:56;;;;;;;14.20;8.98;;;1.80;99.90;;;;;;20810305;28;20083;-47
2023/03/13 05:46:14;;;;;;;13.95;8.52;;;1.70;99.90;;;;;;20821573;28;20453;-50
2023/03/13 05:56:32;;;;;;;15.95;9.05;;;1.60;99.90;;;;;;20806145;28;20367;-53
2023/03/13 06:06:48;;;;;;;14.23;8.98;;;1.80;99.90;;;;;;20827443;28;20122;-52
2023/03/13 06:16:53;;;;;;;14.00;8.63;;;2.00;99.90;;;;;;20902197;28;20041;-50
2023/03/13 06:26:56;;;;;;;14.63;8.98;;;2.30;99.90;;;;;;20917194;28;20040;-50
2023/03/13 06:36:59;;;;;;;13.45;7.90;;;2.70;99.90;;;;;;20918880;28;20486;-54
2023/03/13 06:47:00;;;;;;;13.07;7.90;;;3.00;99.90;;;;;;20918941;28;20048;-51
2023/03/13 06:57:02;;;;;;;14.88;8.60;;;3.40;99.90;;;;;;20917574;28;20032;-47
2023/03/13 07:07:04;;;;;;;12.95;7.43;;;3.70;99.90;;;;;;20916785;28;20498;-54
2023/03/13 07:17:05;;;;;;;11.70;7.13;;;3.70;99.90;;;;;;20916422;28;20040;-47
2023/03/13 07:27:07;;;;;;;12.15;7.90;;;4.00;99.90;;;;;;20916495;28;20033;-46
2023/03/13 07:37:10;;;;;;;11.63;7.05;;;4.00;99.90;;;;;;20913937;28;20033;-52
2023/03/13 07:47:12;;;;;;;11.00;7.53;;;4.10;99.90;;;;;;20914227;28;20049;-51
2023/03/13 07:57:13;;;;;;;11.23;6.93;;;4.40;99.90;;;;;;20912960;28;20062;-51
2023/03/13 08:07:15;;;;;;;12.13;6.97;;;4.50;99.90;;;;;;20912196;28;20045;-51
2023/03/13 08:17:17;;;;;;;11.07;6.65;;;4.70;99.90;;;;;;20911735;28;20040;-47
2023/03/13 08:27:18;;;;;;;9.52;5.97;;;5.60;99.90;;;;;;20910663;28;20032;-47
2023/03/13 08:37:20;;;;;;;10.48;5.85;;;6.20;99.90;;;;;;20909949;28;20037;-52
2023/03/13 08:47:21;;;;;;;10.45;6.30;;;6.70;99.90;;;;;;20907140;28;20338;-52
2023/03/13 08:57:23;;;;;;;8.85;5.70;;;6.80;99.90;;;;;;20908199;28;20032;-47
2023/03/13 09:07:24;;;;;;;9.10;5.72;;;6.70;99.90;;;;;;20907544;28;20044;-52
2023/03/13 09:17:26;;;;;;;10.77;6.32;;;7.20;99.90;;;;;;20907088;28;20041;-49
2023/03/13 09:27:27;;;;;;;8.60;6.20;;;7.50;99.90;;;;;;20905677;28;20501;-48
2023/03/13 09:37:29;;;;;;;8.77;5.40;;;8.20;99.90;;;;;;20905207;28;20029;-51
2023/03/13 09:47:53;;;;;;;7.05;5.00;;;9.30;99.90;;;;;;20905133;28;20044;-50
2023/03/13 09:58:20;;;;;;;7.35;5.22;;;9.50;99.90;;;;;;20904146;28;20114;-51
2023/03/13 10:08:27;;;;;;;8.45;4.88;;;10.10;99.90;;;;;;20904529;28;20056;-49
2023/03/13 10:18:28;;;;;;;9.20;4.80;;;10.70;99.90;;;;;;20903530;28;20029;-50
2023/03/13 10:28:30;;;;;;;7.97;4.82;;;10.50;99.90;;;;;;20903074;28;20091;-50
2023/03/13 10:38:34;;;;;;;7.53;5.63;;;10.20;99.90;;;;;;20901409;28;20075;-51
2023/03/13 10:48:36;;;;;;;8.90;5.50;;;10.10;99.90;;;;;;20902530;28;20544;-46
2023/03/13 10:58:50;;;;;;;9.20;5.30;;;10.00;99.90;;;;;;20901818;28;20029;-51
2023/03/13 11:09:09;;;;;;;10.70;5.72;;;10.10;99.90;;;;;;20909464;28;20056;-52
2023/03/13 11:19:12;;;;;;;8.70;5.65;;;10.70;99.90;;;;;;20916406;28;20386;-50
2023/03/13 11:29:17;;;;;;;7.65;5.82;;;11.40;99.90;;;;;;20915512;28;20033;-50
2023/03/13 11:39:40;;;;;;;8.20;5.45;;;12.10;99.90;;;;;;20914695;28;20044;-49
2023/03/13 11:50:14;;;;;;;10.10;5.80;;;12.90;99.60;;;;;;20914036;28;20037;-50
2023/03/13 12:00:25;;;;;;;8.02;5.70;;;13.20;98.60;;;;;;20830890;28;20430;-47
2023/03/13 12:10:38;;;;;;;9.18;5.70;;;12.90;98.40;;;;;;20872950;28;20490;-51
2023/03/13 12:20:49;;;;;;;9.23;5.95;;;12.90;98.50;;;;;;20911251;28;20025;-49
2023/03/13 12:31:09;;;;;;;;;;;12.90;99.70;;;;;;20912766;28;20075;-49
2023/03/13 12:41:32;;;;;;;9.57;6.13;;;12.30;99.50;;;;;;20910761;28;20275;-51
2023/03/13 12:51:43;;;;;;;9.35;5.93;;;12.10;99.90;;;;;;20910332;28;20351;-50
2023/03/13 13:01:49;;;;;;;10.82;6.05;;;12.20;99.90;;;;;;20906656;28;20043;-48
2023/03/13 13:11:54;;;;;;;11.23;6.88;;;12.00;99.90;;;;;;20907561;28;20059;-48
2023/03/13 13:22:35;;;;;;;11.45;6.80;;;12.30;99.90;;;;;;20906501;28;20029;-51
2023/03/13 13:33:02;;;;;;;12.50;7.10;;;12.60;99.90;;;;;;20906624;28;20509;-48
2023/03/13 13:43:06;;;;;;;11.70;6.60;;;12.90;99.80;;;;;;20731220;28;20642;-49
2023/03/13 13:53:30;;;;;;;10.13;6.15;;;12.20;99.90;;;;;;20730405;28;20204;-51
2023/03/13 14:03:35;;;;;;;16.17;7.53;;;12.40;99.90;;;;;;20731319;28;20041;-50
2023/03/13 14:13:37;;;;;;;15.85;6.53;;;12.20;99.90;;;;;;20769240;28;20053;-52
2023/03/13 14:23:42;;;;;;;13.15;6.75;;;11.30;99.90;;;;;;20903152;28;20037;-50
2023/03/13 14:33:43;;;;;;;11.25;6.85;;;11.00;99.90;;;;;;20903176;28;20032;-51
2023/03/13 14:43:46;;;;;;;10.70;5.90;;;10.60;99.90;;;;;;20910477;28;20052;-46
2023/03/13 14:53:58;;;;;;;13.27;6.15;;;10.30;99.90;;;;;;20930429;28;20032;-49
2023/03/13 15:04:00;;;;;;;10.02;6.22;;;9.80;99.90;;;;;;20917561;28;20051;-49
2023/03/13 15:14:02;;;;;;;12.63;5.93;;;9.70;99.90;;;;;;20917190;28;20044;-51
2023/03/13 15:24:14;;;;;;;9.60;6.57;;;9.30;99.90;;;;;;20915682;28;20032;-49
2023/03/13 15:34:15;;;;;;;16.55;8.52;;;9.10;99.90;;;;;;20915618;28;20051;-50
2023/03/13 15:44:17;;;;;;;12.85;7.35;;;8.30;99.90;;;;;;20914235;28;20091;-49
2023/03/13 15:54:19;;;;;;;12.27;7.78;;;7.50;99.90;;;;;;20913711;28;20028;-46
2023/03/13 16:04:21;;;;;;;21.83;9.85;;;7.20;99.90;;;;;;20912948;28;20036;-50
2023/03/13 16:14:22;;;;;;;15.40;9.30;;;7.00;99.90;;;;;;20907508;28;20041;-44
2023/03/13 16:24:24;;;;;;;19.50;8.85;;;7.00;99.90;;;;;;20911831;28;20478;-46
2023/03/13 16:34:26;;;;;;;12.40;8.57;;;7.20;99.90;;;;;;20910575;28;20037;-46
2023/03/13 16:44:28;;;;;;;17.30;9.70;;;7.00;99.90;;;;;;20908633;28;20094;-46
2023/03/13 16:54:30;;;;;;;16.48;9.40;;;6.80;99.90;;;;;;20908941;28;20064;-51
2023/03/13 17:04:31;;;;;;;16.60;9.77;;;6.40;99.90;;;;;;20907406;28;20036;-52
2023/03/13 17:14:33;;;;;;;18.90;9.45;;;6.00;99.90;;;;;;20908520;28;20041;-49
2023/03/13 17:24:35;;;;;;;19.45;8.73;;;5.70;99.90;;;;;;20906440;28;20041;-45
2023/03/13 17:34:37;;;;;;;23.48;11.98;;;5.40;99.90;;;;;;20906431;28;20360;-49
2023/03/13 17:44:39;;;;;;;14.90;9.60;;;5.20;99.90;;;;;;20901231;28;20032;-49
2023/03/13 17:54:42;;;;;;;21.35;10.20;;;5.20;99.90;;;;;;20891219;28;20380;-52
2023/03/13 18:04:44;;;;;;;17.20;9.57;;;5.30;99.90;;;;;;20822304;28;20540;-52
2023/03/13 18:14:46;;;;;;;21.83;10.35;;;5.30;99.90;;;;;;20906180;28;20170;-49
2023/03/13 18:24:47;;;;;;;16.65;9.82;;;5.30;99.90;;;;;;20930683;28;20548;-51
2023/03/13 18:34:50;;;;;;;17.85;9.52;;;5.30;99.90;;;;;;20931834;28;20032;-50
2023/03/13 18:44:52;;;;;;;16.35;9.25;;;5.30;99.90;;;;;;20929993;28;20029;-49
2023/03/13 18:54:53;;;;;;;17.15;8.93;;;5.20;99.90;;;;;;20941658;28;20497;-50
2023/03/13 19:04:55;;;;;;;19.23;9.05;;;5.20;99.90;;;;;;20929566;28;20032;-50
2023/03/13 19:14:57;;;;;;;21.20;11.00;;;5.20;99.90;;;;;;20929898;28;20165;-49
2023/03/13 19:24:59;;;;;;;16.38;9.63;;;5.20;99.90;;;;;;20925302;28;20033;-50
2023/03/13 19:35:00;;;;;;;17.15;9.35;;;5.20;99.90;;;;;;20915525;28;20482;-49
2023/03/13 19:45:04;;;;;;;16.95;10.13;;;5.00;99.90;;;;;;20914377;28;20032;-53
2023/03/13 19:55:07;;;;;;;22.42;10.60;;;4.90;99.90;;;;;;20913657;28;20110;-52
2023/03/13 20:05:09;;;;;;;19.65;10.48;;;4.90;99.90;;;;;;20913022;28;20087;-51
2023/03/13 20:15:14;;;;;;;19.20;11.32;;;4.90;99.90;;;;;;20910857;28;20052;-50
2023/03/13 20:25:16;;;;;;;20.80;13.02;;;4.70;99.90;;;;;;20911281;28;20091;-51
2023/03/13 20:35:17;;;;;;;27.48;16.02;;;4.60;99.90;;;;;;20909400;28;20029;-49
2023/03/13 20:45:19;;;;;;;35.63;20.33;;;4.50;99.90;;;;;;20908675;28;20456;-50
2023/03/13 20:55:21;;;;;;;35.63;20.88;;;4.20;99.90;;;;;;20919961;28;20114;-49
2023/03/13 21:05:23;;;;;;;39.88;22.40;;;4.30;99.90;;;;;;20904803;28;20029;-51
2023/03/13 21:15:24;;;;;;;33.90;22.05;;;4.20;99.90;;;;;;20934827;28;20446;-50
2023/03/13 21:25:26;;;;;;;212.63;29.73;;;4.20;99.90;;;;;;20902768;28;20091;-52
2023/03/13 21:35:28;;;;;;;153.82;30.92;;;4.10;99.90;;;;;;20905840;28;20048;-50
2023/03/13 21:45:29;;;;;;;521.20;41.95;;;4.10;99.90;;;;;;20901744;28;20098;-54
2023/03/13 21:55:34;;;;;;;47.60;24.17;;;4.10;99.90;;;;;;20904496;28;20032;-54
2023/03/13 22:05:40;;;;;;;39.58;24.25;;;4.00;99.90;;;;;;20904017;28;21112;-54
2023/03/13 22:15:45;;;;;;;31.10;20.08;;;4.10;99.90;;;;;;20903683;28;20514;-51
2023/03/13 22:25:46;;;;;;;24.42;14.00;;;4.20;99.90;;;;;;20901805;28;20421;-47
2023/03/13 22:35:51;;;;;;;25.08;14.77;;;4.80;99.90;;;;;;20902732;28;20074;-54
2023/03/13 22:45:53;;;;;;;19.55;12.98;;;5.00;99.90;;;;;;20902496;28;20044;-52
2023/03/13 22:55:55;;;;;;;7.78;5.65;;;5.00;99.90;;;;;;20902047;28;20368;-50
2023/03/13 23:05:56;;;;;;;21.23;9.00;;;5.10;99.90;;;;;;20911117;28;20115;-54
2023/03/13 23:15:58;;;;;;;26.83;6.50;;;5.50;99.90;;;;;;20916992;28;20274;-50
2023/03/13 23:26:02;;;;;;;76.32;4.78;;;5.60;99.90;;;;;;20915609;28;20025;-52
2023/03/13 23:36:05;;;;;;;23.08;2.80;;;5.50;99.90;;;;;;20913910;28;20060;-54
2023/03/13 23:46:17;;;;;;;2.10;1.90;;;5.50;99.90;;;;;;20914753;28;20036;-57
2023/03/13 23:56:19;;;;;;;1.45;0.88;;;5.50;99.90;;;;;;20913634;28;20033;-55
